createdAt,value
2018-12-24T00:00:02.589Z,5.37
2018-12-24T00:01:02.970Z,5.37
2018-12-24T00:02:02.267Z,5.31
2018-12-24T00:03:02.608Z,5.37
2018-12-24T00:04:02.919Z,5.31
2018-12-24T00:05:03.255Z,5.37
2018-12-24T00:06:02.580Z,5.31
2018-12-24T00:07:02.839Z,5.31
2018-12-24T00:08:03.168Z,5.37
2018-12-24T00:09:02.435Z,5.31
2018-12-24T00:10:02.761Z,5.31
2018-12-24T00:11:03.160Z,5.37
2018-12-24T00:12:06.888Z,5.31
2018-12-24T00:13:02.570Z,5.37
2018-12-24T00:14:02.851Z,5.31
2018-12-24T00:15:03.156Z,5.31
2018-12-24T00:16:02.441Z,5.37
2018-12-24T00:17:02.804Z,5.37
2018-12-24T00:18:03.111Z,5.31
2018-12-24T00:19:02.432Z,5.31
2018-12-24T00:20:02.878Z,5.25
2018-12-24T00:21:03.202Z,5.25
2018-12-24T00:22:02.525Z,5.31
2018-12-24T00:23:02.923Z,5.31
2018-12-24T00:24:03.259Z,5.31
2018-12-24T00:25:02.536Z,5.31
2018-12-24T00:26:02.902Z,5.31
2018-12-24T00:27:03.336Z,5.31
2018-12-24T00:28:02.617Z,5.31
2018-12-24T00:29:02.981Z,5.25
2018-12-24T00:30:02.291Z,5.31
2018-12-24T00:31:02.664Z,5.31
2018-12-24T00:32:02.932Z,5.25
2018-12-24T00:33:03.232Z,5.31
2018-12-24T00:34:02.517Z,5.31
2018-12-24T00:35:02.891Z,5.25
2018-12-24T00:36:03.163Z,5.25
2018-12-24T00:37:02.431Z,5.31
2018-12-24T00:38:02.775Z,5.31
2018-12-24T00:39:03.083Z,5.31
2018-12-24T00:40:02.359Z,5.31
2018-12-24T00:41:02.848Z,5.25
2018-12-24T00:42:03.255Z,5.31
2018-12-24T00:43:02.695Z,5.31
2018-12-24T00:44:03.085Z,5.31
2018-12-24T00:45:02.412Z,5.31
2018-12-24T00:46:03.617Z,5.31
2018-12-24T00:47:03.791Z,5.31
2018-12-24T00:48:03.090Z,5.31
2018-12-24T00:49:02.350Z,5.31
2018-12-24T00:50:02.683Z,5.25
2018-12-24T00:51:02.996Z,5.25
2018-12-24T00:52:02.524Z,5.25
2018-12-24T00:53:02.852Z,5.25
2018-12-24T00:54:03.148Z,5.31
2018-12-24T00:55:02.533Z,5.31
2018-12-24T00:56:02.834Z,5.31
2018-12-24T00:57:03.182Z,5.31
2018-12-24T00:58:02.646Z,5.31
2018-12-24T00:59:02.974Z,5.25
2018-12-24T01:00:02.267Z,5.31
2018-12-24T01:01:02.512Z,5.31
2018-12-24T01:02:02.856Z,5.31
2018-12-24T01:03:03.247Z,5.31
2018-12-24T01:04:02.521Z,5.25
2018-12-24T01:05:02.841Z,5.31
2018-12-24T01:06:03.152Z,5.25
2018-12-24T01:07:02.441Z,5.31
2018-12-24T01:08:02.759Z,5.31
2018-12-24T01:09:03.081Z,5.31
2018-12-24T01:10:02.354Z,5.31
2018-12-24T01:11:02.683Z,5.31
2018-12-24T01:12:03.009Z,5.31
2018-12-24T01:13:02.269Z,5.31
2018-12-24T01:14:02.670Z,5.31
2018-12-24T01:15:02.998Z,5.31
2018-12-24T01:16:02.278Z,5.25
2018-12-24T01:17:02.599Z,5.25
2018-12-24T01:18:02.929Z,5.25
2018-12-24T01:19:03.233Z,5.25
2018-12-24T01:20:02.576Z,5.31
2018-12-24T01:21:03.164Z,5.25
2018-12-24T01:22:02.452Z,5.25
2018-12-24T01:23:02.801Z,5.31
2018-12-24T01:24:03.091Z,5.31
2018-12-24T01:25:02.369Z,5.31
2018-12-24T01:26:02.689Z,5.31
2018-12-24T01:27:03.154Z,5.31
2018-12-24T01:28:02.442Z,5.31
2018-12-24T01:29:02.829Z,5.31
2018-12-24T01:30:03.076Z,5.31
2018-12-24T01:31:02.352Z,5.31
2018-12-24T01:32:02.678Z,5.31
2018-12-24T01:33:03.133Z,5.25
2018-12-24T01:34:02.504Z,5.25
2018-12-24T01:35:02.833Z,5.25
2018-12-24T01:36:03.408Z,5.31
2018-12-24T01:37:02.785Z,5.31
2018-12-24T01:38:03.081Z,5.31
2018-12-24T01:39:02.376Z,5.31
2018-12-24T01:40:02.705Z,5.25
2018-12-24T01:41:02.998Z,5.25
2018-12-24T01:42:02.273Z,5.25
2018-12-24T01:43:02.609Z,5.25
2018-12-24T01:44:02.999Z,5.31
2018-12-24T01:45:02.330Z,5.25
2018-12-24T01:46:03.483Z,5.25
2018-12-24T01:47:02.776Z,5.25
2018-12-24T01:48:03.090Z,5.25
2018-12-24T01:49:02.356Z,5.25
2018-12-24T01:50:02.732Z,5.25
2018-12-24T01:51:03.003Z,5.25
2018-12-24T01:52:02.285Z,5.25
2018-12-24T01:53:02.608Z,5.25
2018-12-24T01:54:02.922Z,5.25
2018-12-24T01:55:03.483Z,5.25
2018-12-24T01:56:03.072Z,5.18
2018-12-24T01:57:02.439Z,5.18
2018-12-24T01:58:02.751Z,5.25
2018-12-24T01:59:03.082Z,5.18
2018-12-24T02:00:02.449Z,5.18
2018-12-24T02:01:02.770Z,5.25
2018-12-24T02:02:03.129Z,5.18
2018-12-24T02:03:02.430Z,5.18
2018-12-24T02:04:03.543Z,5.25
2018-12-24T02:05:02.867Z,5.18
2018-12-24T02:06:03.160Z,5.18
2018-12-24T02:07:02.443Z,5.18
2018-12-24T02:08:03.053Z,5.18
2018-12-24T02:09:02.430Z,5.18
2018-12-24T02:10:02.975Z,5.18
2018-12-24T02:11:02.409Z,5.18
2018-12-24T02:12:02.825Z,5.18
2018-12-24T02:13:03.373Z,5.18
2018-12-24T02:14:02.890Z,5.18
2018-12-24T02:15:03.269Z,5.25
2018-12-24T02:16:02.503Z,5.18
2018-12-24T02:17:02.834Z,5.18
2018-12-24T02:18:03.154Z,5.18
2018-12-24T02:19:02.448Z,5.18
2018-12-24T02:20:02.823Z,5.18
2018-12-24T02:21:03.239Z,5.18
2018-12-24T02:22:02.525Z,5.18
2018-12-24T02:23:02.831Z,5.18
2018-12-24T02:24:03.064Z,5.18
2018-12-24T02:25:02.360Z,5.18
2018-12-24T02:26:02.763Z,5.18
2018-12-24T02:27:03.065Z,5.25
2018-12-24T02:28:02.357Z,5.18
2018-12-24T02:29:02.685Z,5.18
2018-12-24T02:30:03.097Z,5.18
2018-12-24T02:31:02.486Z,5.18
2018-12-24T02:32:02.776Z,5.12
2018-12-24T02:33:03.082Z,5.12
2018-12-24T02:34:02.346Z,5.12
2018-12-24T02:35:02.599Z,5.12
2018-12-24T02:36:02.921Z,5.12
2018-12-24T02:37:03.283Z,5.12
2018-12-24T02:38:02.611Z,5.18
2018-12-24T02:39:02.876Z,5.12
2018-12-24T02:40:03.163Z,5.18
2018-12-24T02:41:02.440Z,5.12
2018-12-24T02:42:02.758Z,5.12
2018-12-24T02:43:03.123Z,5.18
2018-12-24T02:44:02.520Z,5.18
2018-12-24T02:45:02.914Z,5.12
2018-12-24T02:46:03.234Z,5.18
2018-12-24T02:47:02.509Z,5.12
2018-12-24T02:48:02.771Z,5.18
2018-12-24T02:49:03.127Z,5.18
2018-12-24T02:50:02.484Z,5.18
2018-12-24T02:51:02.772Z,5.12
2018-12-24T02:52:03.075Z,5.18
2018-12-24T02:53:02.352Z,5.18
2018-12-24T02:54:02.597Z,5.18
2018-12-24T02:55:03.011Z,5.12
2018-12-24T02:56:02.273Z,5.12
2018-12-24T02:57:02.597Z,5.18
2018-12-24T02:58:02.894Z,5.18
2018-12-24T02:59:03.215Z,5.18
2018-12-24T03:00:02.530Z,5.18
2018-12-24T03:01:02.894Z,5.18
2018-12-24T03:02:03.169Z,5.18
2018-12-24T03:03:02.431Z,5.18
2018-12-24T03:04:02.777Z,5.18
2018-12-24T03:05:03.084Z,5.12
2018-12-24T03:06:02.407Z,5.12
2018-12-24T03:07:02.762Z,5.18
2018-12-24T03:08:03.088Z,5.18
2018-12-24T03:09:02.354Z,5.18
2018-12-24T03:10:02.673Z,5.18
2018-12-24T03:11:02.998Z,5.18
2018-12-24T03:12:02.416Z,5.18
2018-12-24T03:13:03.300Z,5.18
2018-12-24T03:14:02.690Z,5.18
2018-12-24T03:15:02.996Z,5.18
2018-12-24T03:16:02.245Z,5.18
2018-12-24T03:17:02.622Z,5.18
2018-12-24T03:18:02.915Z,5.18
2018-12-24T03:19:03.227Z,5.18
2018-12-24T03:20:02.503Z,5.18
2018-12-24T03:21:02.831Z,5.06
2018-12-24T03:22:03.207Z,4.75
2018-12-24T03:23:02.528Z,4.75
2018-12-24T03:24:02.865Z,4.68
2018-12-24T03:25:03.152Z,4.43
2018-12-24T03:26:02.433Z,4.37
2018-12-24T03:27:02.822Z,4.31
2018-12-24T03:28:03.088Z,4.25
2018-12-24T03:29:02.365Z,4.31
2018-12-24T03:30:02.686Z,4.31
2018-12-24T03:31:02.990Z,4.37
2018-12-24T03:32:02.327Z,4.31
2018-12-24T03:33:02.647Z,4.37
2018-12-24T03:34:02.909Z,4.43
2018-12-24T03:35:03.241Z,4.43
2018-12-24T03:36:02.526Z,4.43
2018-12-24T03:37:02.829Z,4.37
2018-12-24T03:38:03.147Z,4.37
2018-12-24T03:39:02.488Z,4.37
2018-12-24T03:40:02.747Z,4.31
2018-12-24T03:41:02.986Z,4.43
2018-12-24T03:42:02.277Z,4.37
2018-12-24T03:43:12.069Z,4.37
2018-12-24T03:44:03.738Z,4.37
2018-12-24T03:45:02.996Z,4.25
2018-12-24T03:46:02.288Z,4.25
2018-12-24T03:47:02.641Z,4.25
2018-12-24T03:48:02.920Z,4.31
2018-12-24T03:49:03.239Z,4.37
2018-12-24T03:50:02.562Z,4.25
2018-12-24T03:51:02.850Z,4.31
2018-12-24T03:52:03.157Z,4.31
2018-12-24T03:53:02.430Z,4.06
2018-12-24T03:54:02.673Z,4
2018-12-24T03:55:02.982Z,4
2018-12-24T03:56:02.278Z,3.93
2018-12-24T03:57:02.593Z,3.81
2018-12-24T03:58:02.918Z,3.93
2018-12-24T03:59:03.236Z,3.93
2018-12-24T04:00:02.574Z,3.87
2018-12-24T04:01:02.866Z,3.93
2018-12-24T04:02:03.244Z,3.93
2018-12-24T04:03:02.514Z,3.93
2018-12-24T04:04:02.873Z,3.93
2018-12-24T04:05:03.158Z,3.93
2018-12-24T04:06:02.447Z,3.87
2018-12-24T04:07:02.818Z,3.93
2018-12-24T04:08:03.292Z,4
2018-12-24T04:09:02.589Z,4.06
2018-12-24T04:10:02.851Z,4.06
2018-12-24T04:11:03.175Z,4.12
2018-12-24T04:12:02.488Z,4.06
2018-12-24T04:13:02.768Z,4.12
2018-12-24T04:14:03.067Z,4.06
2018-12-24T04:15:02.365Z,4.06
2018-12-24T04:16:02.691Z,4.18
2018-12-24T04:17:03.017Z,4.12
2018-12-24T04:18:02.329Z,4.18
2018-12-24T04:19:03.478Z,4.18
2018-12-24T04:20:02.754Z,4.12
2018-12-24T04:21:03.078Z,4.12
2018-12-24T04:22:02.346Z,4.12
2018-12-24T04:23:02.732Z,4.06
2018-12-24T04:24:02.995Z,4.06
2018-12-24T04:25:02.280Z,4.06
2018-12-24T04:26:02.587Z,4.06
2018-12-24T04:27:02.834Z,4.06
2018-12-24T04:28:03.208Z,4.12
2018-12-24T04:29:02.511Z,4.12
2018-12-24T04:30:02.829Z,4.06
2018-12-24T04:31:03.078Z,4.12
2018-12-24T04:32:02.346Z,4.18
2018-12-24T04:33:02.648Z,4.18
2018-12-24T04:34:02.983Z,4.25
2018-12-24T04:35:02.278Z,4.18
2018-12-24T04:36:02.597Z,4.18
2018-12-24T04:37:02.929Z,4.12
2018-12-24T04:38:03.236Z,4.12
2018-12-24T04:39:02.575Z,4.12
2018-12-24T04:40:02.883Z,4.18
2018-12-24T04:41:03.152Z,4
2018-12-24T04:42:02.417Z,4.06
2018-12-24T04:43:02.686Z,4.06
2018-12-24T04:44:02.990Z,4.12
2018-12-24T04:45:02.286Z,4.18
2018-12-24T04:46:02.703Z,4.25
2018-12-24T04:47:02.992Z,4.06
2018-12-24T04:48:02.323Z,4
2018-12-24T04:49:02.592Z,4.06
2018-12-24T04:50:02.829Z,4.06
2018-12-24T04:51:03.076Z,4.12
2018-12-24T04:52:02.408Z,4.06
2018-12-24T04:53:02.671Z,4
2018-12-24T04:54:02.998Z,4
2018-12-24T04:55:02.357Z,4.06
2018-12-24T04:56:02.690Z,4
2018-12-24T04:57:03.054Z,4
2018-12-24T04:58:02.374Z,3.93
2018-12-24T04:59:02.680Z,4
2018-12-24T05:00:02.993Z,4
2018-12-24T05:01:02.280Z,3.87
2018-12-24T05:02:02.642Z,3.87
2018-12-24T05:03:03.012Z,3.93
2018-12-24T05:04:02.276Z,4
2018-12-24T05:05:02.589Z,3.93
2018-12-24T05:06:02.922Z,3.87
2018-12-24T05:07:03.322Z,4
2018-12-24T05:08:02.595Z,3.93
2018-12-24T05:09:02.913Z,3.87
2018-12-24T05:10:03.235Z,3.87
2018-12-24T05:11:02.505Z,3.87
2018-12-24T05:12:02.781Z,3.81
2018-12-24T05:13:03.126Z,3.81
2018-12-24T05:14:02.443Z,3.87
2018-12-24T05:15:02.770Z,3.93
2018-12-24T05:16:03.071Z,3.93
2018-12-24T05:17:02.352Z,3.93
2018-12-24T05:18:02.721Z,3.87
2018-12-24T05:19:03.094Z,3.87
2018-12-24T05:20:02.357Z,3.87
2018-12-24T05:21:02.667Z,3.87
2018-12-24T05:22:02.920Z,3.81
2018-12-24T05:23:03.245Z,3.81
2018-12-24T05:24:02.526Z,3.87
2018-12-24T05:25:02.872Z,3.93
2018-12-24T05:26:02.284Z,4
2018-12-24T05:27:02.597Z,3.87
2018-12-24T05:28:02.915Z,3.93
2018-12-24T05:29:03.248Z,3.87
2018-12-24T05:30:03.446Z,3.93
2018-12-24T05:31:02.785Z,3.81
2018-12-24T05:32:03.070Z,3.75
2018-12-24T05:33:02.361Z,3.87
2018-12-24T05:34:02.733Z,3.75
2018-12-24T05:35:02.995Z,3.75
2018-12-24T05:36:02.339Z,3.75
2018-12-24T05:37:02.585Z,3.75
2018-12-24T05:38:02.907Z,3.81
2018-12-24T05:39:03.243Z,3.81
2018-12-24T05:40:02.523Z,3.75
2018-12-24T05:41:02.932Z,3.81
2018-12-24T05:42:03.231Z,3.81
2018-12-24T05:43:02.539Z,3.75
2018-12-24T05:44:02.795Z,3.81
2018-12-24T05:45:03.067Z,3.75
2018-12-24T05:46:02.360Z,3.75
2018-12-24T05:47:02.768Z,3.81
2018-12-24T05:48:03.077Z,3.75
2018-12-24T05:49:02.639Z,3.75
2018-12-24T05:50:02.914Z,3.75
2018-12-24T05:51:03.229Z,3.75
2018-12-24T05:52:02.564Z,3.68
2018-12-24T05:53:02.854Z,3.75
2018-12-24T05:54:03.150Z,3.75
2018-12-24T05:55:02.441Z,3.68
2018-12-24T05:56:02.749Z,3.68
2018-12-24T05:57:03.131Z,3.75
2018-12-24T05:58:02.489Z,3.75
2018-12-24T05:59:02.749Z,3.81
2018-12-24T06:00:03.085Z,3.81
2018-12-24T06:01:02.359Z,3.93
2018-12-24T06:02:02.688Z,3.81
2018-12-24T06:03:03.056Z,3.75
2018-12-24T06:04:02.900Z,3.75
2018-12-24T06:05:03.156Z,3.75
2018-12-24T06:06:02.423Z,3.68
2018-12-24T06:07:02.748Z,3.75
2018-12-24T06:08:03.008Z,3.75
2018-12-24T06:09:02.338Z,3.75
2018-12-24T06:10:02.603Z,3.75
2018-12-24T06:11:03.050Z,3.81
2018-12-24T06:12:03.233Z,3.87
2018-12-24T06:13:02.524Z,3.75
2018-12-24T06:14:02.922Z,3.68
2018-12-24T06:15:03.242Z,3.68
2018-12-24T06:16:02.531Z,3.75
2018-12-24T06:17:02.841Z,3.81
2018-12-24T06:18:03.156Z,3.75
2018-12-24T06:19:02.437Z,3.81
2018-12-24T06:20:02.827Z,3.81
2018-12-24T06:21:03.067Z,3.81
2018-12-24T06:22:02.368Z,3.75
2018-12-24T06:23:02.746Z,3.68
2018-12-24T06:24:02.990Z,3.62
2018-12-24T06:25:02.285Z,3.68
2018-12-24T06:26:02.693Z,3.68
2018-12-24T06:27:02.996Z,3.68
2018-12-24T06:28:02.271Z,3.56
2018-12-24T06:29:02.589Z,3.68
2018-12-24T06:30:02.831Z,3.56
2018-12-24T06:31:03.132Z,3.56
2018-12-24T06:32:02.434Z,3.56
2018-12-24T06:33:02.672Z,3.56
2018-12-24T06:34:02.942Z,3.56
2018-12-24T06:35:04.173Z,3.62
2018-12-24T06:36:02.436Z,3.75
2018-12-24T06:37:02.816Z,3.68
2018-12-24T06:38:03.081Z,3.62
2018-12-24T06:39:02.440Z,3.56
2018-12-24T06:40:02.751Z,3.56
2018-12-24T06:41:02.997Z,3.56
2018-12-24T06:42:02.277Z,3.56
2018-12-24T06:43:02.653Z,3.56
2018-12-24T06:44:06.607Z,3.5
2018-12-24T06:45:03.072Z,3.43
2018-12-24T06:46:02.358Z,3.5
2018-12-24T06:47:02.680Z,3.43
2018-12-24T06:48:02.999Z,3.56
2018-12-24T06:49:02.371Z,3.5
2018-12-24T06:50:02.685Z,3.5
2018-12-24T06:51:03.103Z,3.5
2018-12-24T06:52:02.360Z,3.56
2018-12-24T06:53:02.676Z,3.62
2018-12-24T06:54:03.053Z,3.56
2018-12-24T06:55:02.359Z,3.56
2018-12-24T06:56:02.693Z,3.56
2018-12-24T06:57:03.004Z,3.56
2018-12-24T06:58:02.279Z,3.5
2018-12-24T06:59:02.651Z,3.43
2018-12-24T07:00:03.120Z,3.43
2018-12-24T07:01:02.438Z,3.43
2018-12-24T07:02:02.769Z,3.37
2018-12-24T07:03:03.097Z,3.37
2018-12-24T07:04:02.350Z,3.37
2018-12-24T07:05:03.614Z,3.37
2018-12-24T07:06:03.012Z,3.31
2018-12-24T07:07:02.274Z,3.31
2018-12-24T07:08:02.594Z,3.31
2018-12-24T07:09:02.931Z,3.31
2018-12-24T07:10:03.286Z,3.37
2018-12-24T07:11:02.583Z,3.43
2018-12-24T07:12:02.841Z,3.37
2018-12-24T07:13:03.180Z,3.43
2018-12-24T07:14:02.436Z,3.37
2018-12-24T07:15:03.703Z,3.43
2018-12-24T07:16:02.997Z,3.5
2018-12-24T07:17:02.288Z,3.43
2018-12-24T07:18:02.619Z,3.43
2018-12-24T07:19:02.912Z,3.43
2018-12-24T07:20:03.325Z,3.5
2018-12-24T07:21:02.609Z,3.56
2018-12-24T07:22:03.016Z,3.5
2018-12-24T07:23:02.285Z,3.43
2018-12-24T07:24:02.620Z,3.5
2018-12-24T07:25:02.916Z,3.5
2018-12-24T07:26:03.359Z,3.43
2018-12-24T07:27:02.665Z,3.43
2018-12-24T07:28:02.996Z,3.43
2018-12-24T07:29:02.275Z,3.37
2018-12-24T07:30:02.602Z,3.31
2018-12-24T07:31:02.914Z,3.37
2018-12-24T07:32:03.290Z,3.43
2018-12-24T07:33:02.599Z,3.31
2018-12-24T07:34:02.912Z,3.43
2018-12-24T07:35:03.241Z,3.37
2018-12-24T07:36:02.519Z,3.31
2018-12-24T07:37:02.894Z,3.31
2018-12-24T07:38:03.238Z,3.25
2018-12-24T07:39:02.523Z,3.12
2018-12-24T07:40:02.834Z,3.12
2018-12-24T07:41:03.157Z,3.18
2018-12-24T07:42:02.462Z,3.18
2018-12-24T07:43:02.761Z,3.06
2018-12-24T07:44:03.138Z,3.06
2018-12-24T07:45:02.439Z,2.93
2018-12-24T07:46:02.770Z,2.81
2018-12-24T07:47:03.080Z,2.93
2018-12-24T07:48:02.362Z,2.81
2018-12-24T07:49:02.767Z,2.81
2018-12-24T07:50:03.080Z,2.93
2018-12-24T07:51:02.369Z,2.93
2018-12-24T07:52:02.681Z,3
2018-12-24T07:53:03.066Z,2.93
2018-12-24T07:54:02.365Z,3
2018-12-24T07:55:02.793Z,3.12
2018-12-24T07:56:03.074Z,3.06
2018-12-24T07:57:02.358Z,3
2018-12-24T07:58:03.556Z,3.12
2018-12-24T07:59:02.845Z,3.18
2018-12-24T08:00:03.235Z,3.12
2018-12-24T08:01:02.753Z,3.12
2018-12-24T08:02:03.953Z,3.06
2018-12-24T08:03:03.245Z,3
2018-12-24T08:04:02.521Z,3
2018-12-24T08:05:02.835Z,3.12
2018-12-24T08:06:03.246Z,3.18
2018-12-24T08:07:02.518Z,3.12
2018-12-24T08:08:02.886Z,3.12
2018-12-24T08:09:03.266Z,3.12
2018-12-24T08:10:02.610Z,3.06
2018-12-24T08:11:02.931Z,3.06
2018-12-24T08:12:03.293Z,3.25
2018-12-24T08:13:02.674Z,3.12
2018-12-24T08:14:03.003Z,3.06
2018-12-24T08:15:02.279Z,3.06
2018-12-24T08:16:02.602Z,3.06
2018-12-24T08:17:02.931Z,3.06
2018-12-24T08:18:04.397Z,3.18
2018-12-24T08:19:02.678Z,3.12
2018-12-24T08:20:02.994Z,3.06
2018-12-24T08:21:02.290Z,3.12
2018-12-24T08:22:02.600Z,3.12
2018-12-24T08:23:02.914Z,3.12
2018-12-24T08:24:03.212Z,3.06
2018-12-24T08:25:02.510Z,3.12
2018-12-24T08:26:02.754Z,3.06
2018-12-24T08:27:03.081Z,3.06
2018-12-24T08:28:02.355Z,3.12
2018-12-24T08:29:02.742Z,3.18
2018-12-24T08:30:03.051Z,3.06
2018-12-24T08:31:02.350Z,3.06
2018-12-24T08:32:02.602Z,2.93
2018-12-24T08:33:02.910Z,3.06
2018-12-24T08:34:03.194Z,3
2018-12-24T08:35:02.436Z,3.06
2018-12-24T08:36:02.815Z,3.18
2018-12-24T08:37:03.072Z,3.06
2018-12-24T08:38:02.348Z,3.12
2018-12-24T08:39:02.721Z,3.12
2018-12-24T08:40:03.087Z,3.06
2018-12-24T08:41:02.373Z,3.06
2018-12-24T08:42:02.796Z,3.06
2018-12-24T08:43:03.082Z,3.18
2018-12-24T08:44:02.374Z,3.06
2018-12-24T08:45:02.795Z,3.06
2018-12-24T08:46:03.076Z,3.06
2018-12-24T08:47:02.376Z,3.18
2018-12-24T08:48:03.643Z,3.12
2018-12-24T08:49:03.796Z,3.12
2018-12-24T08:50:03.060Z,3
2018-12-24T08:51:02.353Z,3.06
2018-12-24T08:52:02.601Z,2.93
2018-12-24T08:53:02.909Z,3
2018-12-24T08:54:03.246Z,3
2018-12-24T08:55:02.522Z,3
2018-12-24T08:56:02.890Z,2.81
2018-12-24T08:57:03.166Z,3
2018-12-24T08:58:02.427Z,3
2018-12-24T08:59:02.687Z,3
2018-12-24T09:00:03.064Z,3
2018-12-24T09:01:02.413Z,3.18
2018-12-24T09:02:02.679Z,3.18
2018-12-24T09:03:02.992Z,3.12
2018-12-24T09:04:02.275Z,3.12
2018-12-24T09:05:02.630Z,3.06
2018-12-24T09:06:03.824Z,3.18
2018-12-24T09:07:03.104Z,3.18
2018-12-24T09:08:02.456Z,3.12
2018-12-24T09:09:02.765Z,3.25
2018-12-24T09:10:03.076Z,3.18
2018-12-24T09:11:02.356Z,3.18
2018-12-24T09:12:02.726Z,3.12
2018-12-24T09:13:03.879Z,3.12
2018-12-24T09:14:03.160Z,3.12
2018-12-24T09:15:02.438Z,3.18
2018-12-24T09:16:02.762Z,3.18
2018-12-24T09:17:03.145Z,3.12
2018-12-24T09:18:02.541Z,3.12
2018-12-24T09:19:02.847Z,3.12
2018-12-24T09:20:03.175Z,3.18
2018-12-24T09:21:02.518Z,3.31
2018-12-24T09:22:02.906Z,3.31
2018-12-24T09:23:03.293Z,3.43
2018-12-24T09:24:02.617Z,3.31
2018-12-24T09:25:02.912Z,3.31
2018-12-24T09:26:03.246Z,3.37
2018-12-24T09:27:02.572Z,3.31
2018-12-24T09:28:02.847Z,3.37
2018-12-24T09:29:03.243Z,3.25
2018-12-24T09:30:02.513Z,3.25
2018-12-24T09:31:02.834Z,3.37
2018-12-24T09:32:03.096Z,3.31
2018-12-24T09:33:02.359Z,3.31
2018-12-24T09:34:02.688Z,3.31
2018-12-24T09:35:03.059Z,3.25
2018-12-24T09:36:02.436Z,3.18
2018-12-24T09:37:02.770Z,3.18
2018-12-24T09:38:03.158Z,3.25
2018-12-24T09:39:02.438Z,3.12
2018-12-24T09:40:02.824Z,2.93
2018-12-24T09:41:03.081Z,2.93
2018-12-24T09:42:02.371Z,3
2018-12-24T09:43:02.729Z,3
2018-12-24T09:44:03.000Z,3
2018-12-24T09:45:02.323Z,3
2018-12-24T09:46:02.588Z,2.81
2018-12-24T09:47:02.847Z,2.81
2018-12-24T09:48:03.210Z,2.5
2018-12-24T09:49:02.541Z,2.43
2018-12-24T09:50:02.897Z,2.37
2018-12-24T09:51:03.167Z,2.31
2018-12-24T09:52:02.439Z,2.37
2018-12-24T09:53:03.044Z,2.18
2018-12-24T09:54:02.839Z,2.31
2018-12-24T09:55:03.460Z,2.37
2018-12-24T09:56:02.898Z,2.31
2018-12-24T09:57:03.250Z,2.31
2018-12-24T09:58:02.582Z,2.37
2018-12-24T09:59:02.897Z,2.37
2018-12-24T10:00:03.293Z,2.37
2018-12-24T10:01:02.651Z,2.37
2018-12-24T10:02:02.914Z,2.56
2018-12-24T10:03:03.179Z,2.75
2018-12-24T10:04:02.784Z,2.68
2018-12-24T10:05:02.354Z,2.5
2018-12-24T10:06:02.918Z,2.43
2018-12-24T10:07:02.378Z,2.56
2018-12-24T10:08:02.673Z,2.5
2018-12-24T10:09:03.237Z,2.56
2018-12-24T10:10:02.696Z,2.5
2018-12-24T10:11:04.608Z,2.43
2018-12-24T10:12:03.161Z,2.43
2018-12-24T10:13:02.503Z,2.43
2018-12-24T10:14:02.771Z,2.43
2018-12-24T10:15:07.630Z,2.18
2018-12-24T10:16:02.445Z,2.25
2018-12-24T10:17:02.725Z,2.18
2018-12-24T10:18:03.003Z,2.25
2018-12-24T10:19:02.282Z,2.18
2018-12-24T10:20:02.599Z,2.18
2018-12-24T10:21:02.914Z,2.18
2018-12-24T10:22:03.347Z,2.06
2018-12-24T10:23:02.600Z,2.12
2018-12-24T10:24:02.974Z,2.12
2018-12-24T10:25:03.202Z,2.12
2018-12-24T10:26:02.517Z,2.06
2018-12-24T10:27:02.847Z,2.06
2018-12-24T10:28:03.256Z,2.12
2018-12-24T10:29:02.511Z,2.18
2018-12-24T10:30:02.789Z,2.25
2018-12-24T10:31:03.147Z,2.18
2018-12-24T10:32:02.450Z,2.25
2018-12-24T10:33:02.886Z,2.25
2018-12-24T10:34:03.153Z,2.37
2018-12-24T10:35:02.505Z,2.37
2018-12-24T10:36:03.331Z,2.25
2018-12-24T10:37:02.763Z,2
2018-12-24T10:38:03.772Z,2.25
2018-12-24T10:39:03.154Z,2.12
2018-12-24T10:40:02.449Z,2.25
2018-12-24T10:41:02.865Z,2.37
2018-12-24T10:42:03.219Z,2.37
2018-12-24T10:43:02.530Z,2.25
2018-12-24T10:44:02.895Z,2.18
2018-12-24T10:45:03.184Z,2.12
2018-12-24T10:46:02.436Z,2.12
2018-12-24T10:47:02.833Z,2.25
2018-12-24T10:48:03.160Z,2.31
2018-12-24T10:49:02.521Z,2.18
2018-12-24T10:50:03.120Z,2.37
2018-12-24T10:51:02.442Z,2.25
2018-12-24T10:52:02.764Z,2.43
2018-12-24T10:53:03.121Z,2.37
2018-12-24T10:54:02.499Z,2.25
2018-12-24T10:55:02.831Z,2.25
2018-12-24T10:56:03.250Z,2.31
2018-12-24T10:57:02.740Z,2.31
2018-12-24T10:58:03.099Z,2.43
2018-12-24T10:59:02.446Z,2.25
2018-12-24T11:00:03.054Z,2.37
2018-12-24T11:01:02.380Z,2.31
2018-12-24T11:02:02.731Z,2.37
2018-12-24T11:03:03.011Z,2.37
2018-12-24T11:04:02.293Z,2.37
2018-12-24T11:05:02.596Z,2.5
2018-12-24T11:06:02.848Z,2.5
2018-12-24T11:07:03.293Z,2.68
2018-12-24T11:08:02.604Z,2.68
2018-12-24T11:09:03.813Z,2.56
2018-12-24T11:10:03.081Z,2.37
2018-12-24T11:11:02.375Z,2.43
2018-12-24T11:12:02.688Z,2.43
2018-12-24T11:13:03.048Z,2.43
2018-12-24T11:14:02.378Z,2.37
2018-12-24T11:15:02.798Z,2.31
2018-12-24T11:16:03.243Z,2.31
2018-12-24T11:17:02.596Z,2.43
2018-12-24T11:18:02.964Z,2.31
2018-12-24T11:19:02.392Z,2.37
2018-12-24T11:20:03.147Z,2.56
2018-12-24T11:21:02.516Z,2.56
2018-12-24T11:22:02.847Z,2.31
2018-12-24T11:23:03.154Z,2.31
2018-12-24T11:24:04.889Z,2.25
2018-12-24T11:25:02.459Z,2.31
2018-12-24T11:26:03.652Z,2.25
2018-12-24T11:27:03.072Z,2.25
2018-12-24T11:28:02.352Z,2.25
2018-12-24T11:29:02.682Z,2.31
2018-12-24T11:30:03.059Z,2.31
2018-12-24T11:31:02.409Z,2.43
2018-12-24T11:32:02.692Z,2.37
2018-12-24T11:33:03.159Z,2.37
2018-12-24T11:34:02.520Z,2.37
2018-12-24T11:35:02.847Z,2.25
2018-12-24T11:36:03.247Z,2.25
2018-12-24T11:37:02.523Z,2.31
2018-12-24T11:38:02.805Z,2.37
2018-12-24T11:39:03.086Z,2.31
2018-12-24T11:40:02.376Z,2.37
2018-12-24T11:41:02.685Z,2.25
2018-12-24T11:42:03.119Z,2.37
2018-12-24T11:43:02.458Z,2.31
2018-12-24T11:44:02.778Z,2.43
2018-12-24T11:45:03.193Z,2.43
2018-12-24T11:46:02.523Z,2.43
2018-12-24T11:47:02.893Z,2.5
2018-12-24T11:48:03.285Z,2.37
2018-12-24T11:49:02.608Z,2.25
2018-12-24T11:50:03.078Z,2.31
2018-12-24T11:51:02.358Z,2.37
2018-12-24T11:52:02.752Z,2.37
2018-12-24T11:53:03.220Z,2.43
2018-12-24T11:54:02.600Z,2.43
2018-12-24T11:55:02.933Z,2.43
2018-12-24T11:56:04.428Z,2.37
2018-12-24T11:57:03.017Z,2.43
2018-12-24T11:58:02.439Z,2.43
2018-12-24T11:59:02.971Z,2.31
2018-12-24T12:00:02.281Z,2.37
2018-12-24T12:01:02.650Z,2.37
2018-12-24T12:02:09.853Z,2.5
2018-12-24T12:03:02.452Z,2.37
2018-12-24T12:04:02.761Z,2.37
2018-12-24T12:05:03.252Z,2.37
2018-12-24T12:06:02.579Z,2.31
2018-12-24T12:07:02.843Z,2.31
2018-12-24T12:08:03.175Z,2.31
2018-12-24T12:09:02.437Z,2.18
2018-12-24T12:10:02.760Z,2.12
2018-12-24T12:11:03.143Z,2.31
2018-12-24T12:12:02.456Z,2.31
2018-12-24T12:13:02.748Z,2.25
2018-12-24T12:14:02.998Z,2.06
2018-12-24T12:15:02.294Z,2.18
2018-12-24T12:16:02.716Z,2.06
2018-12-24T12:17:04.055Z,2.06
2018-12-24T12:18:03.246Z,2.06
2018-12-24T12:19:02.518Z,1.93
2018-12-24T12:20:02.832Z,2
2018-12-24T12:21:03.075Z,2
2018-12-24T12:22:02.373Z,2.06
2018-12-24T12:23:02.780Z,2
2018-12-24T12:24:03.101Z,2
2018-12-24T12:25:02.358Z,1.93
2018-12-24T12:26:02.681Z,1.87
2018-12-24T12:27:03.015Z,1.81
2018-12-24T12:28:02.337Z,1.81
2018-12-24T12:29:02.600Z,1.81
2018-12-24T12:30:02.911Z,1.81
2018-12-24T12:31:03.305Z,2
2018-12-24T12:32:02.595Z,2.12
2018-12-24T12:33:02.946Z,2.18
2018-12-24T12:34:03.238Z,2.06
2018-12-24T12:35:02.523Z,2.12
2018-12-24T12:36:02.836Z,2.18
2018-12-24T12:37:03.072Z,2.06
2018-12-24T12:38:02.420Z,2.06
2018-12-24T12:39:02.876Z,2.12
2018-12-24T12:40:03.171Z,2.31
2018-12-24T12:41:02.445Z,2.06
2018-12-24T12:42:02.759Z,2.12
2018-12-24T12:43:03.067Z,2
2018-12-24T12:44:02.374Z,1.93
2018-12-24T12:45:02.769Z,1.87
2018-12-24T12:46:03.079Z,2
2018-12-24T12:47:02.409Z,1.93
2018-12-24T12:48:02.673Z,2
2018-12-24T12:49:02.909Z,2.06
2018-12-24T12:50:03.173Z,2
2018-12-24T12:51:02.580Z,2
2018-12-24T12:52:02.856Z,2.06
2018-12-24T12:53:03.153Z,2.12
2018-12-24T12:54:02.440Z,2
2018-12-24T12:55:02.771Z,1.87
2018-12-24T12:56:03.947Z,1.93
2018-12-24T12:57:02.359Z,2.12
2018-12-24T12:58:02.679Z,2
2018-12-24T12:59:03.002Z,1.93
2018-12-24T13:00:02.273Z,2.18
2018-12-24T13:01:02.548Z,2.25
2018-12-24T13:02:03.091Z,2.25
2018-12-24T13:03:02.358Z,2.25
2018-12-24T13:04:02.684Z,2.31
2018-12-24T13:05:03.006Z,2.31
2018-12-24T13:06:02.280Z,2.18
2018-12-24T13:07:02.651Z,2.18
2018-12-24T13:08:02.926Z,2.06
2018-12-24T13:09:03.251Z,2
2018-12-24T13:10:04.494Z,2.12
2018-12-24T13:11:02.923Z,2.12
2018-12-24T13:12:03.302Z,2.25
2018-12-24T13:13:02.591Z,2.25
2018-12-24T13:14:02.918Z,2.12
2018-12-24T13:15:03.236Z,2.25
2018-12-24T13:16:02.526Z,2.31
2018-12-24T13:17:02.837Z,2.25
2018-12-24T13:18:03.278Z,2.37
2018-12-24T13:19:02.598Z,2.25
2018-12-24T13:20:02.917Z,2.37
2018-12-24T13:21:03.242Z,2.25
2018-12-24T13:22:04.342Z,2.25
2018-12-24T13:23:03.023Z,2.12